This is the latest recevied weather packets stored in our database for station/object M7PDA-1. If no packets are shown the sender has not sent any weather packets the latest 10 day(s).
| Time | Temp. | Humidity | Pressure | Rain* | Wind** | Luminosity | Snow |
|---|---|---|---|---|---|---|---|
| 1787773366 | 20° C | 57% | 1014.9 hPa | - | - | - | - |
| 1787772465 | 20.56° C | 56% | 1014.8 hPa | - | - | - | - |
| 1787771564 | 20.56° C | 56% | 1014.7 hPa | - | - | - | - |
| 1787770663 | 21.11° C | 55% | 1014.4 hPa | - | - | - | - |
| 1787769762 | 21.67° C | 55% | 1014.4 hPa | - | - | - | - |
| 1787768862 | 21.67° C | 55% | 1014.3 hPa | - | - | - | - |
| 1787767961 | 21.67° C | 54% | 1014.3 hPa | - | - | - | - |
| 1787767060 | 21.67° C | 54% | 1014.4 hPa | - | - | - | - |
| 1787766159 | 22.22° C | 53% | 1014.4 hPa | - | - | - | - |
| 1787765258 | 22.22° C | 53% | 1014.1 hPa | - | - | - | - |
| 1787764358 | 22.78° C | 51% | 1014.1 hPa | - | - | - | - |
| 1787763457 | 23.33° C | 50% | 1014 hPa | - | - | - | - |
| 1787762556 | 24.44° C | 49% | 1013.8 hPa | - | - | - | - |
| 1787761926 | 23.89° C | 50% | 1013.8 hPa | - | - | - | - |
| 1787761655 | 23.89° C | 50% | 1013.8 hPa | - | - | - | - |
| 1787760754 | 23.89° C | 50% | 1014.1 hPa | - | - | - | - |
| 1787759854 | 23.89° C | 49% | 1014 hPa | - | - | - | - |
| 1787758953 | 24.44° C | 49% | 1014.1 hPa | - | - | - | - |
| 1787758052 | 23.89° C | 51% | 1014.4 hPa | - | - | - | - |
| 1787757151 | 23.89° C | 50% | 1014.6 hPa | - | - | - | - |
| 1787756251 | 23.33° C | 52% | 1014.9 hPa | - | - | - | - |
| 1787755350 | 24.44° C | 49% | 1014.5 hPa | - | - | - | - |
| 1787754449 | 24.44° C | 49% | 1014.6 hPa | - | - | - | - |
| 1787753548 | 25° C | 49% | 1014.7 hPa | - | - | - | - |
| 1787752647 | 25° C | 49% | 1014.8 hPa | - | - | - | - |
* Rain since midnight (hover to see other rain measurements)
** Current wind speed in m/s (hover to see current wind gust speed)